Time;durP1;ratioP1;P1;durP2;ratioP2;P2;SDS_P1;SDS_P2;PMS_P1;PMS_P2;Temp;Humidity;BMP_temperature;BMP_pressure;BME280_temperature;BME280_humidity;BME280_pressure;Samples;Min_cycle;Max_cycle;Signal;HPM_P1;HPM_P2
2022/06/25 00:01:50;;;;;;;;;1.50;1.50;;;;;-146.44;100.00;58906.56;5095275;27;45499;-60
2022/06/25 00:06:59;;;;;;;;;1.50;1.50;;;;;-146.44;100.00;58906.56;5087284;27;45590;-60
2022/06/25 00:09:24;;;;;;;;;2.00;2.00;;;;;-146.44;100.00;58906.56;5079884;27;45421;-61
2022/06/25 00:14:34;;;;;;;;;3.00;1.75;;;;;-146.44;100.00;58906.56;5098444;27;45362;-60
2022/06/25 00:16:59;;;;;;;;;2.00;2.00;;;;;-146.44;100.00;58906.56;5098103;27;45435;-60
2022/06/25 00:19:24;;;;;;;;;1.00;1.00;;;;;-146.44;100.00;58906.56;5098006;27;45477;-60
2022/06/25 00:21:50;;;;;;;;;3.00;2.00;;;;;-146.44;100.00;58906.56;5097983;27;45586;-60
2022/06/25 00:24:16;;;;;;;;;1.50;1.50;;;;;-146.44;100.00;58906.56;5098300;27;45532;-60
2022/06/25 00:26:43;;;;;;;;;2.00;2.00;;;;;-146.44;100.00;58906.56;5083641;27;45639;-60
2022/06/25 00:29:10;;;;;;;;;2.00;2.00;;;;;-146.44;100.00;58906.56;5077542;28;45475;-60
2022/06/25 00:31:35;;;;;;;;;2.00;2.00;;;;;-146.44;100.00;58906.56;5077384;28;45467;-60
2022/06/25 00:34:01;;;;;;;;;2.75;2.75;;;;;-146.44;100.00;58906.56;5077606;28;45584;-60
2022/06/25 00:36:26;;;;;;;;;2.25;2.25;;;;;-146.44;100.00;58906.56;5077533;28;45485;-60
2022/06/25 00:38:52;;;;;;;;;2.00;1.75;;;;;-146.44;100.00;58906.56;5058981;28;45450;-61
2022/06/25 00:41:17;;;;;;;;;3.25;2.00;;;;;-146.44;100.00;58906.56;5095565;27;45461;-60
2022/06/25 00:43:42;;;;;;;;;2.00;2.00;;;;;-146.44;100.00;58906.56;5097736;27;45462;-61
2022/06/25 00:46:08;;;;;;;;;2.00;2.00;;;;;-146.44;100.00;58906.56;5097417;27;45461;-61
2022/06/25 00:48:34;;;;;;;;;3.25;3.25;;;;;-146.44;100.00;58906.56;5097492;27;45430;-61
2022/06/25 00:51:05;;;;;;;;;3.00;3.00;;;;;-146.44;100.00;58906.56;5097961;27;45421;-61
2022/06/25 00:53:32;;;;;;;;;1.00;1.00;;;;;-146.44;100.00;58906.56;5095618;27;45483;-61
2022/06/25 00:55:59;;;;;;;;;2.00;2.00;;;;;-146.44;100.00;58906.56;5077028;28;45502;-61
2022/06/25 00:58:30;;;;;;;;;3.25;3.25;;;;;-146.44;100.00;58906.56;5076823;28;45439;-60
2022/06/25 01:00:57;;;;;;;;;2.75;2.75;;;;;-146.44;100.00;58906.56;5077152;28;45441;-61
2022/06/25 01:03:25;;;;;;;;;2.00;2.00;;;;;-146.44;100.00;58906.56;5077081;28;45444;-61
2022/06/25 01:05:50;;;;;;;;;4.00;4.00;;;;;-146.44;100.00;58906.56;5076953;28;45510;-61
2022/06/25 01:08:19;;;;;;;;;2.75;2.75;;;;;-146.44;100.00;58906.56;5078549;27;45500;-60
2022/06/25 01:10:45;;;;;;;;;4.00;4.00;;;;;-146.44;100.00;58906.56;5097069;27;45800;-61
2022/06/25 01:13:10;;;;;;;;;3.75;3.50;;;;;-146.44;100.00;58906.56;5097248;27;45621;-61
2022/06/25 01:15:38;;;;;;;;;2.00;2.00;;;;;-146.44;100.00;58906.56;5096881;27;46849;-61
2022/06/25 01:18:03;;;;;;;;;4.25;4.00;;;;;-146.44;100.00;58906.56;5078747;27;45435;-60
2022/06/25 01:20:29;;;;;;;;;2.00;2.00;;;;;-146.44;100.00;58906.56;5095619;27;45453;-61
2022/06/25 01:22:54;;;;;;;;;3.00;3.00;;;;;-146.44;100.00;58906.56;5097255;27;45628;-60
2022/06/25 01:25:20;;;;;;;;;2.75;2.00;;;;;-146.44;100.00;58906.56;5097287;27;46644;-61
2022/06/25 01:27:46;;;;;;;;;2.00;2.00;;;;;-146.44;100.00;58906.56;5095370;27;45454;-61
2022/06/25 01:30:13;;;;;;;;;2.00;2.00;;;;;-146.44;100.00;58906.56;5095366;27;45458;-61
2022/06/25 01:32:39;;;;;;;;;3.75;2.50;;;;;-146.44;100.00;58906.56;5094338;27;45926;-61
2022/06/25 01:35:05;;;;;;;;;2.00;2.00;;;;;-146.44;100.00;58906.56;5076315;28;46125;-61
2022/06/25 01:37:32;;;;;;;;;3.00;3.00;;;;;-146.44;100.00;58906.56;5076291;27;45532;-60
2022/06/25 01:39:57;;;;;;;;;3.50;2.50;;;;;-146.44;100.00;58906.56;5092110;27;45471;-61
2022/06/25 01:45:09;;;;;;;;;1.25;1.25;;;;;-146.44;100.00;58906.56;5076494;28;45520;-61
2022/06/25 01:47:35;;;;;;;;;2.00;2.00;;;;;-146.44;100.00;58906.56;5076430;28;45423;-61
2022/06/25 01:50:01;;;;;;;;;2.25;2.25;;;;;-146.44;100.00;58906.56;5082803;27;45551;-60
2022/06/25 01:52:29;;;;;;;;;3.00;2.00;;;;;-146.44;100.00;58906.56;5096657;27;45521;-61
2022/06/25 01:54:54;;;;;;;;;3.25;2.75;;;;;-146.44;100.00;58906.56;5096532;27;45515;-61
2022/06/25 01:57:20;;;;;;;;;2.25;2.00;;;;;-146.44;100.00;58906.56;5096657;27;45499;-61
2022/06/25 01:59:47;;;;;;;;;2.00;2.00;;;;;-146.44;100.00;58906.56;5091902;27;45634;-61
2022/06/25 02:02:12;;;;;;;;;2.75;2.75;;;;;-146.44;100.00;58906.56;5076251;28;45477;-60
2022/06/25 02:04:38;;;;;;;;;2.25;0.25;;;;;-146.44;100.00;58906.56;5076176;28;45489;-60
2022/06/25 02:07:04;;;;;;;;;1.50;1.50;;;;;-146.44;100.00;58906.56;5076084;28;45603;-60
2022/06/25 02:09:29;;;;;;;;;1.00;1.00;;;;;-146.44;100.00;58906.56;5077913;27;45522;-60
2022/06/25 02:11:54;;;;;;;;;3.00;3.00;;;;;-146.44;100.00;58906.56;5096130;27;45473;-60
2022/06/25 02:14:20;;;;;;;;;2.00;2.00;;;;;-146.44;100.00;58906.56;5096322;27;46475;-60
2022/06/25 02:16:45;;;;;;;;;1.75;1.75;;;;;-146.44;100.00;58906.56;5096391;27;45496;-60
2022/06/25 02:19:10;;;;;;;;;2.00;2.00;;;;;-146.44;100.00;58906.56;5094908;27;45443;-60
2022/06/25 02:21:36;;;;;;;;;1.00;1.00;;;;;-146.44;100.00;58906.56;5075850;28;45717;-60
2022/06/25 02:24:01;;;;;;;;;1.00;1.00;;;;;-146.44;100.00;58906.56;5075861;27;45775;-60
2022/06/25 02:26:27;;;;;;;;;1.00;1.00;;;;;-146.44;100.00;58906.56;5075107;27;45484;-60
2022/06/25 02:28:52;;;;;;;;;3.00;2.00;;;;;-146.44;100.00;58906.56;5075989;28;45478;-60
2022/06/25 02:31:18;;;;;;;;;1.75;1.75;;;;;-146.44;100.00;58906.56;5094025;27;45631;-60
2022/06/25 02:33:44;;;;;;;;;1.75;1.75;;;;;-146.44;100.00;58906.56;5095053;27;45405;-60
2022/06/25 02:36:09;;;;;;;;;2.75;1.75;;;;;-146.44;100.00;58906.56;5095872;27;45508;-60
2022/06/25 02:38:34;;;;;;;;;1.00;1.00;;;;;-146.44;100.00;58906.56;5096023;27;45429;-59
2022/06/25 02:41:00;;;;;;;;;0.50;0.50;;;;;-146.44;100.00;58906.56;5079287;27;45435;-59
2022/06/25 02:43:25;;;;;;;;;1.25;1.00;;;;;-146.44;100.00;58906.56;5075678;28;46267;-60
2022/06/25 02:45:51;;;;;;;;;1.00;1.00;;;;;-146.44;100.00;58906.56;5075611;28;45376;-59
2022/06/25 02:48:16;;;;;;;;;2.50;2.50;;;;;-146.44;100.00;58906.56;5075840;28;45374;-60
2022/06/25 02:50:41;;;;;;;;;1.00;1.00;;;;;-146.44;100.00;58906.56;5088619;27;45532;-60
2022/06/25 02:53:07;;;;;;;;;0.50;0.50;;;;;-146.44;100.00;58906.56;5077378;27;45816;-60
2022/06/25 03:01:00;;;;;;;;;1.00;1.00;;;;;-146.44;100.00;58906.56;5079625;27;45522;-60
2022/06/25 03:03:25;;;;;;;;;1.50;1.50;;;;;-146.44;100.00;58906.56;5075133;28;45523;-60
2022/06/25 03:05:51;;;;;;;;;0.00;0.00;;;;;-146.44;100.00;58906.56;5075131;28;48629;-60
2022/06/25 03:08:16;;;;;;;;;0.75;0.25;;;;;-146.44;100.00;58906.56;5075262;28;45724;-60
2022/06/25 03:10:42;;;;;;;;;1.00;1.00;;;;;-146.44;100.00;58906.56;5088553;27;45525;-61
2022/06/25 03:13:08;;;;;;;;;1.00;1.00;;;;;-146.44;100.00;58906.56;5095194;27;45490;-60
2022/06/25 03:15:33;;;;;;;;;0.00;0.00;;;;;-146.44;100.00;58906.56;5095350;27;45501;-61
2022/06/25 03:17:59;;;;;;;;;1.00;0.00;;;;;-146.44;100.00;58906.56;5095539;27;45585;-61
2022/06/25 03:20:24;;;;;;;;;0.25;0.25;;;;;-146.44;100.00;58906.56;5083497;27;45464;-61
2022/06/25 03:22:50;;;;;;;;;1.25;0.75;;;;;-146.44;100.00;58906.56;5074667;28;49951;-61
2022/06/25 03:25:15;;;;;;;;;0.00;0.00;;;;;-146.44;100.00;58906.56;5074884;28;45498;-61
2022/06/25 03:27:40;;;;;;;;;1.00;0.00;;;;;-146.44;100.00;58906.56;5090597;27;45435;-61
2022/06/25 03:30:06;;;;;;;;;1.00;1.00;;;;;-146.44;100.00;58906.56;5078923;27;45774;-61
2022/06/25 03:32:32;;;;;;;;;0.00;0.00;;;;;-146.44;100.00;58906.56;5076021;27;47101;-61
2022/06/25 03:34:57;;;;;;;;;0.75;0.00;;;;;-146.44;100.00;58906.56;5074838;28;45495;-61
2022/06/25 03:37:23;;;;;;;;;0.25;0.00;;;;;-146.44;100.00;58906.56;5076361;28;45493;-61
2022/06/25 03:39:48;;;;;;;;;0.00;0.00;;;;;-146.44;100.00;58906.56;5083645;27;45485;-61
2022/06/25 03:42:13;;;;;;;;;0.00;0.00;;;;;-146.44;100.00;58906.56;5092316;27;47402;-61
2022/06/25 03:44:38;;;;;;;;;0.75;0.00;;;;;-146.44;100.00;58906.56;5092177;27;45527;-61
2022/06/25 03:47:04;;;;;;;;;0.00;0.00;;;;;-146.44;100.00;58906.56;5099057;27;45462;-61
2022/06/25 03:49:30;;;;;;;;;0.00;0.00;;;;;-146.44;100.00;58906.56;5095551;27;45421;-61
2022/06/25 03:51:55;;;;;;;;;1.00;0.00;;;;;-146.44;100.00;58906.56;5078105;28;45552;-61
2022/06/25 03:54:21;;;;;;;;;0.00;0.00;;;;;-146.44;100.00;58906.56;5077968;28;45493;-61
2022/06/25 03:56:47;;;;;;;;;1.50;1.00;;;;;-146.44;100.00;58906.56;5078297;28;45566;-61
2022/06/25 03:59:12;;;;;;;;;0.00;0.00;;;;;-146.44;100.00;58906.56;5080164;27;45399;-61
2022/06/25 04:01:38;;;;;;;;;0.25;0.25;;;;;-146.44;100.00;58906.56;5097901;27;45533;-61
2022/06/25 04:04:03;;;;;;;;;0.75;0.75;;;;;-146.44;100.00;58906.56;5098514;27;45472;-61
2022/06/25 04:06:28;;;;;;;;;0.00;0.00;;;;;-146.44;100.00;58906.56;5098677;27;45688;-61
2022/06/25 04:08:54;;;;;;;;;0.50;0.50;;;;;-146.44;100.00;58906.56;5098823;27;45559;-61
2022/06/25 04:11:19;;;;;;;;;1.25;0.50;;;;;-146.44;100.00;58906.56;5092278;27;46715;-61
2022/06/25 04:13:44;;;;;;;;;0.00;0.00;;;;;-146.44;100.00;58906.56;5097887;27;52896;-62
2022/06/25 04:16:10;;;;;;;;;1.25;0.50;;;;;-146.44;100.00;58906.56;5098595;27;45685;-61
2022/06/25 04:18:36;;;;;;;;;1.00;1.00;;;;;-146.44;100.00;58906.56;5098481;27;45465;-61
2022/06/25 04:21:02;;;;;;;;;1.00;1.00;;;;;-146.44;100.00;58906.56;5087948;27;46565;-61
2022/06/25 04:23:27;;;;;;;;;1.50;1.50;;;;;-146.44;100.00;58906.56;5078035;27;45551;-61
2022/06/25 04:25:52;;;;;;;;;1.00;0.00;;;;;-146.44;100.00;58906.56;5077892;28;45586;-61
2022/06/25 04:31:01;;;;;;;;;1.00;1.00;;;;;-146.44;100.00;58906.56;5093778;27;45477;-61
2022/06/25 04:33:27;;;;;;;;;1.25;1.25;;;;;-146.44;100.00;58906.56;5098118;27;45433;-61
2022/06/25 04:35:52;;;;;;;;;1.00;1.00;;;;;-146.44;100.00;58906.56;5097960;27;45456;-61
2022/06/25 04:38:17;;;;;;;;;0.25;0.25;;;;;-146.44;100.00;58906.56;5098065;27;45448;-61
2022/06/25 04:40:42;;;;;;;;;1.00;1.00;;;;;-146.44;100.00;58906.56;5086489;27;47380;-61
2022/06/25 04:43:08;;;;;;;;;0.50;0.50;;;;;-146.44;100.00;58906.56;5077338;28;45490;-61
2022/06/25 04:45:34;;;;;;;;;0.75;0.75;;;;;-146.44;100.00;58906.56;5077621;28;46044;-61
2022/06/25 04:48:00;;;;;;;;;0.50;0.50;;;;;-146.44;100.00;58906.56;5077082;28;45438;-61
2022/06/25 04:50:26;;;;;;;;;2.00;1.00;;;;;-146.44;100.00;58906.56;5081665;27;46142;-61
2022/06/25 04:52:52;;;;;;;;;1.00;1.00;;;;;-146.44;100.00;58906.56;5077143;28;45422;-61
2022/06/25 04:55:17;;;;;;;;;1.00;1.00;;;;;-146.44;100.00;58906.56;5077470;28;45546;-61
2022/06/25 04:57:42;;;;;;;;;1.00;1.00;;;;;-146.44;100.00;58906.56;5077256;28;45735;-61
2022/06/25 05:00:11;;;;;;;;;1.00;1.00;;;;;-146.44;100.00;58906.56;5087053;27;45499;-61
2022/06/25 05:02:37;;;;;;;;;3.00;1.00;;;;;-146.44;100.00;58906.56;5079221;27;45454;-61
2022/06/25 05:05:02;;;;;;;;;1.75;1.75;;;;;-146.44;100.00;58906.56;5096376;27;45556;-61
2022/06/25 05:07:28;;;;;;;;;1.00;1.00;;;;;-146.44;100.00;58906.56;5097898;27;45508;-61
2022/06/25 05:09:53;;;;;;;;;3.00;1.50;;;;;-146.44;100.00;58906.56;5089325;27;46197;-61
2022/06/25 05:15:02;;;;;;;;;0.25;0.00;;;;;-146.44;100.00;58906.56;5077332;28;45364;-61
2022/06/25 05:17:28;;;;;;;;;1.00;1.00;;;;;-146.44;100.00;58906.56;5077213;28;45368;-61
2022/06/25 05:19:54;;;;;;;;;1.25;0.00;;;;;-146.44;100.00;58906.56;5084288;27;46324;-61
2022/06/25 05:22:19;;;;;;;;;1.00;1.00;;;;;-146.44;100.00;58906.56;5097328;27;45491;-61
2022/06/25 05:24:44;;;;;;;;;1.00;1.00;;;;;-146.44;100.00;58906.56;5097415;27;45478;-61
2022/06/25 05:27:10;;;;;;;;;1.00;1.00;;;;;-146.44;100.00;58906.56;5097487;27;45419;-61
2022/06/25 05:29:36;;;;;;;;;1.25;1.00;;;;;-146.44;100.00;58906.56;5092016;27;45548;-61
2022/06/25 05:32:01;;;;;;;;;1.00;1.00;;;;;-146.44;100.00;58906.56;5097044;27;45497;-61
2022/06/25 05:34:26;;;;;;;;;0.00;0.00;;;;;-146.44;100.00;58906.56;5097449;27;45481;-61
2022/06/25 05:36:52;;;;;;;;;1.75;1.75;;;;;-146.44;100.00;58906.56;5097113;27;45666;-61
2022/06/25 05:39:17;;;;;;;;;1.00;1.00;;;;;-146.44;100.00;58906.56;5074292;28;46295;-61
2022/06/25 05:41:42;;;;;;;;;1.75;1.75;;;;;-146.44;100.00;58906.56;5090963;27;45524;-61
2022/06/25 05:44:07;;;;;;;;;1.00;1.00;;;;;-146.44;100.00;58906.56;5083699;27;45585;-61
2022/06/25 05:46:33;;;;;;;;;1.00;1.00;;;;;-146.44;100.00;58906.56;5076106;27;45547;-60
2022/06/25 05:48:58;;;;;;;;;0.75;0.75;;;;;-146.44;100.00;58906.56;5076129;28;45494;-61
2022/06/25 05:51:23;;;;;;;;;0.00;0.00;;;;;-146.44;100.00;58906.56;5057631;28;53870;-61
2022/06/25 05:53:49;;;;;;;;;0.75;0.75;;;;;-146.44;100.00;58906.56;5076631;27;45377;-61
2022/06/25 05:56:14;;;;;;;;;0.25;0.00;;;;;-146.44;100.00;58906.56;5076418;28;45382;-61
2022/06/25 05:58:40;;;;;;;;;2.00;2.00;;;;;-146.44;100.00;58906.56;5076232;28;45533;-61
2022/06/25 06:01:05;;;;;;;;;0.75;0.75;;;;;-146.44;100.00;58906.56;5075471;28;45556;-61
2022/06/25 06:03:30;;;;;;;;;0.75;0.75;;;;;-146.44;100.00;58906.56;5079751;27;45378;-61
2022/06/25 06:05:57;;;;;;;;;1.00;1.00;;;;;-146.44;100.00;58906.56;5089369;27;49264;-61
2022/06/25 06:08:23;;;;;;;;;0.00;0.00;;;;;-146.44;100.00;58906.56;5096577;27;45543;-61
2022/06/25 06:10:48;;;;;;;;;2.00;0.50;;;;;-146.44;100.00;58906.56;5085991;27;45363;-61
2022/06/25 06:13:14;;;;;;;;;0.00;0.00;;;;;-146.44;100.00;58906.56;5082884;27;45528;-61
2022/06/25 06:15:39;;;;;;;;;2.00;0.25;;;;;-146.44;100.00;58906.56;5076023;28;45419;-61
2022/06/25 06:18:05;;;;;;;;;1.75;1.00;;;;;-146.44;100.00;58906.56;5075653;28;46043;-61
2022/06/25 06:20:30;;;;;;;;;1.25;1.25;;;;;-146.44;100.00;58906.56;5084969;27;45461;-61
2022/06/25 06:22:56;;;;;;;;;1.00;1.00;;;;;-146.44;100.00;58906.56;5077467;27;45505;-61
2022/06/25 06:25:22;;;;;;;;;1.00;1.00;;;;;-146.44;100.00;58906.56;5080585;27;45655;-61
2022/06/25 06:27:47;;;;;;;;;2.00;2.00;;;;;-146.44;100.00;58906.56;5095810;27;45537;-61
2022/06/25 06:30:12;;;;;;;;;2.00;2.00;;;;;-146.44;100.00;58906.56;5095914;27;45576;-61
2022/06/25 06:32:38;;;;;;;;;2.00;2.00;;;;;-146.44;100.00;58906.56;5095970;27;45457;-61
2022/06/25 06:35:05;;;;;;;;;1.75;1.75;;;;;-146.44;100.00;58906.56;5096009;27;45545;-61
2022/06/25 06:37:31;;;;;;;;;1.00;1.00;;;;;-146.44;100.00;58906.56;5077099;27;46529;-61
2022/06/25 06:39:56;;;;;;;;;0.75;0.75;;;;;-146.44;100.00;58906.56;5095385;27;45464;-61
2022/06/25 06:42:21;;;;;;;;;1.00;1.00;;;;;-146.44;100.00;58906.56;5095604;27;45536;-61
2022/06/25 06:44:46;;;;;;;;;1.00;1.00;;;;;-146.44;100.00;58906.56;5077280;27;45422;-61
2022/06/25 06:47:12;;;;;;;;;2.00;2.00;;;;;-146.44;100.00;58906.56;5094910;27;46187;-61
2022/06/25 06:49:38;;;;;;;;;1.00;1.00;;;;;-146.44;100.00;58906.56;5095496;27;45493;-61
2022/06/25 06:52:05;;;;;;;;;1.00;1.00;;;;;-146.44;100.00;58906.56;5095639;27;45522;-61
2022/06/25 06:54:30;;;;;;;;;1.00;1.00;;;;;-146.44;100.00;58906.56;5095624;27;45472;-61
2022/06/25 06:56:55;;;;;;;;;0.00;0.00;;;;;-146.44;100.00;58906.56;5095341;27;47063;-61
2022/06/25 06:59:21;;;;;;;;;1.50;1.50;;;;;-146.44;100.00;58906.56;5095295;27;45419;-61
2022/06/25 07:01:47;;;;;;;;;0.75;0.75;;;;;-146.44;100.00;58906.56;5095469;27;45509;-63
2022/06/25 07:04:12;;;;;;;;;1.00;1.00;;;;;-146.44;100.00;58906.56;5081262;27;45379;-63
2022/06/25 07:06:37;;;;;;;;;2.00;1.00;;;;;-146.44;100.00;58906.56;5082666;27;45540;-64
2022/06/25 07:09:03;;;;;;;;;1.00;1.00;;;;;-146.44;100.00;58906.56;5082466;27;45729;-61
2022/06/25 07:11:29;;;;;;;;;0.75;0.75;;;;;-146.44;100.00;58906.56;5094870;27;45469;-62
2022/06/25 07:14:04;;;;;;;;;1.00;1.00;;;;;-146.44;100.00;58906.56;5086070;27;45521;-61
2022/06/25 07:16:30;;;;;;;;;0.50;0.50;;;;;-146.44;100.00;58906.56;5094727;27;45488;-60
2022/06/25 07:18:57;;;;;;;;;1.25;1.25;;;;;-146.44;100.00;58906.56;5086372;27;45528;-61
2022/06/25 07:21:23;;;;;;;;;1.00;0.50;;;;;-146.44;100.00;58906.56;5078215;27;45523;-60
2022/06/25 07:23:48;;;;;;;;;1.25;1.25;;;;;-146.44;100.00;58906.56;5074309;27;45428;-60
2022/06/25 07:26:14;;;;;;;;;2.50;0.75;;;;;-146.44;100.00;58906.56;5076004;27;46487;-60
2022/06/25 07:28:39;;;;;;;;;2.00;0.50;;;;;-146.44;100.00;58906.56;5094417;27;45451;-62
2022/06/25 07:31:05;;;;;;;;;0.00;0.00;;;;;-146.44;100.00;58906.56;5094718;27;45507;-60
2022/06/25 07:33:30;;;;;;;;;0.00;0.00;;;;;-146.44;100.00;58906.56;5094612;27;45449;-60
2022/06/25 07:35:56;;;;;;;;;1.25;1.25;;;;;-146.44;100.00;58906.56;5094572;27;45537;-60
2022/06/25 07:38:22;;;;;;;;;2.00;0.00;;;;;-146.44;100.00;58906.56;5085990;27;45519;-60
2022/06/25 07:40:47;;;;;;;;;1.00;1.00;;;;;-146.44;100.00;58906.56;5074193;28;45548;-61
2022/06/25 07:43:12;;;;;;;;;1.00;1.00;;;;;-146.44;100.00;58906.56;5078086;27;45616;-60
2022/06/25 07:45:38;;;;;;;;;0.75;0.75;;;;;-146.44;100.00;58906.56;5081994;27;48796;-60
2022/06/25 07:48:03;;;;;;;;;1.00;1.00;;;;;-146.44;100.00;58906.56;5093972;27;45457;-61
2022/06/25 07:53:12;;;;;;;;;2.00;2.00;;;;;-146.44;100.00;58906.56;5074168;28;45574;-65
2022/06/25 07:55:38;;;;;;;;;1.25;1.25;;;;;-146.44;100.00;58906.56;5073881;28;45560;-65
2022/06/25 07:58:04;;;;;;;;;1.00;1.00;;;;;-146.44;100.00;58906.56;5073918;28;45516;-64
2022/06/25 08:00:29;;;;;;;;;1.25;1.00;;;;;-146.44;100.00;58906.56;5073908;28;45431;-64
2022/06/25 08:02:54;;;;;;;;;2.00;1.00;;;;;-146.44;100.00;58906.56;5074813;27;45585;-66
2022/06/25 08:05:20;;;;;;;;;1.25;1.25;;;;;-146.44;100.00;58906.56;5074880;27;45461;-60
2022/06/25 08:07:49;;;;;;;;;2.25;2.25;;;;;-146.44;100.00;58906.56;5074858;27;45420;-63
2022/06/25 08:10:14;;;;;;;;;1.00;1.00;;;;;-146.44;100.00;58906.56;5076351;27;45501;-65
2022/06/25 08:12:40;;;;;;;;;1.00;1.00;;;;;-146.44;100.00;58906.56;5088993;27;45515;-63
2022/06/25 08:15:06;;;;;;;;;1.00;1.00;;;;;-146.44;100.00;58906.56;5074172;27;47825;-65
2022/06/25 08:17:31;;;;;;;;;2.00;2.00;;;;;-146.44;100.00;58906.56;5074888;27;45498;-64
2022/06/25 08:19:56;;;;;;;;;0.50;0.50;;;;;-146.44;100.00;58906.56;5075240;27;45436;-66
2022/06/25 08:22:22;;;;;;;;;1.00;1.00;;;;;-146.44;100.00;58906.56;5061460;27;45415;-64
2022/06/25 08:24:47;;;;;;;;;1.00;1.00;;;;;-146.44;100.00;58906.56;5097300;27;46020;-63
2022/06/25 08:27:12;;;;;;;;;1.50;1.50;;;;;-146.44;100.00;58906.56;5067100;28;45557;-62
2022/06/25 08:29:38;;;;;;;;;2.00;1.00;;;;;-146.44;100.00;58906.56;5077984;27;45518;-64
2022/06/25 08:32:04;;;;;;;;;2.00;2.00;;;;;-146.44;100.00;58906.56;5093783;27;45457;-64
2022/06/25 08:34:29;;;;;;;;;1.50;1.50;;;;;-146.44;100.00;58906.56;5097435;27;45407;-64
2022/06/25 08:36:54;;;;;;;;;1.00;1.00;;;;;-146.44;100.00;58906.56;5092620;27;45565;-66
2022/06/25 08:39:20;;;;;;;;;1.00;1.00;;;;;-146.44;100.00;58906.56;5081890;27;45997;-64
2022/06/25 08:41:46;;;;;;;;;1.75;1.50;;;;;-146.44;100.00;58906.56;5078338;27;46003;-63
2022/06/25 08:44:11;;;;;;;;;3.00;1.00;;;;;-146.44;100.00;58906.56;5097298;27;45508;-62
2022/06/25 08:46:37;;;;;;;;;2.50;1.00;;;;;-146.44;100.00;58906.56;5096000;27;45454;-66
2022/06/25 08:49:04;;;;;;;;;1.00;1.00;;;;;-146.44;100.00;58906.56;5095393;27;45418;-68
2022/06/25 08:51:32;;;;;;;;;2.00;2.00;;;;;-146.44;100.00;58906.56;5067335;27;45510;-64
2022/06/25 08:53:58;;;;;;;;;4.25;1.00;;;;;-146.44;100.00;58906.56;5087943;27;46627;-61
2022/06/25 08:56:24;;;;;;;;;1.00;1.00;;;;;-146.44;100.00;58906.56;5078450;27;45501;-62
2022/06/25 08:58:49;;;;;;;;;3.25;2.00;;;;;-146.44;100.00;58906.56;5096986;27;45505;-62
2022/06/25 09:01:15;;;;;;;;;2.00;2.00;;;;;-146.44;100.00;58906.56;5096828;27;45559;-64
2022/06/25 09:03:41;;;;;;;;;2.25;2.25;;;;;-146.44;100.00;58906.56;5096929;27;45528;-68
2022/06/25 09:06:13;;;;;;;;;1.25;1.25;;;;;-146.44;100.00;58906.56;5096812;27;45553;-66
2022/06/25 09:08:38;;;;;;;;;1.50;1.50;;;;;-146.44;100.00;58906.56;5095459;27;45470;-67
2022/06/25 09:11:03;;;;;;;;;1.00;1.00;;;;;-146.44;100.00;58906.56;5092009;27;49869;-64
2022/06/25 09:13:28;;;;;;;;;2.00;2.00;;;;;-146.44;100.00;58906.56;5094838;27;51319;-64
2022/06/25 09:15:54;;;;;;;;;2.75;2.50;;;;;-146.44;100.00;58906.56;5093037;27;45504;-61
2022/06/25 09:18:19;;;;;;;;;1.50;1.00;;;;;-146.44;100.00;58906.56;5087348;27;45495;-65
2022/06/25 09:21:00;;;;;;;;;1.00;1.00;;;;;-146.44;100.00;58906.56;5091753;27;45504;-61
2022/06/25 09:23:27;;;;;;;;;2.00;2.00;;;;;-146.44;100.00;58906.56;5078084;27;45540;-60
2022/06/25 09:26:01;;;;;;;;;1.50;1.50;;;;;-146.44;100.00;58906.56;5069348;27;45607;-60
2022/06/25 09:28:32;;;;;;;;;2.00;2.00;;;;;-146.44;100.00;58906.56;5079871;27;45579;-60
2022/06/25 09:30:58;;;;;;;;;3.00;2.00;;;;;-146.44;100.00;58906.56;5081674;27;45698;-62
2022/06/25 09:33:23;;;;;;;;;2.25;2.00;;;;;-146.44;100.00;58906.56;5091273;27;46064;-62
2022/06/25 09:35:52;;;;;;;;;2.75;2.75;;;;;-146.44;100.00;58906.56;5073971;28;45454;-62
2022/06/25 09:38:19;;;;;;;;;1.75;1.75;;;;;-146.44;100.00;58906.56;5057769;28;45509;-61
2022/06/25 09:40:49;;;;;;;;;2.00;2.00;;;;;-146.44;100.00;58906.56;5075548;28;45625;-61
2022/06/25 09:43:19;;;;;;;;;5.00;5.00;;;;;-146.44;100.00;58906.56;5075355;28;46582;-62
2022/06/25 09:45:47;;;;;;;;;3.00;2.25;;;;;-146.44;100.00;58906.56;5075795;28;45486;-61
2022/06/25 09:48:20;;;;;;;;;1.00;1.00;;;;;-146.44;100.00;58906.56;5075725;28;45505;-62
2022/06/25 09:51:04;;;;;;;;;1.00;1.00;;;;;-146.44;100.00;58906.56;5075455;28;45699;-62
2022/06/25 09:53:30;;;;;;;;;2.50;1.50;;;;;-146.44;100.00;58906.56;5075471;28;45525;-62
2022/06/25 09:55:56;;;;;;;;;2.00;2.00;;;;;-146.44;100.00;58906.56;5075420;28;45480;-61
2022/06/25 09:58:22;;;;;;;;;4.50;2.75;;;;;-146.44;100.00;58906.56;5075699;28;45606;-62
2022/06/25 10:00:47;;;;;;;;;2.00;2.00;;;;;-146.44;100.00;58906.56;5075511;28;45478;-62
2022/06/25 10:03:13;;;;;;;;;1.75;1.75;;;;;-146.44;100.00;58906.56;5075661;28;45679;-62
2022/06/25 10:05:40;;;;;;;;;2.00;2.00;;;;;-146.44;100.00;58906.56;5075525;28;45513;-62
2022/06/25 10:08:11;;;;;;;;;1.00;1.00;;;;;-146.44;100.00;58906.56;5075765;28;45541;-62
2022/06/25 10:10:44;;;;;;;;;3.00;2.00;;;;;-146.44;100.00;58906.56;5075641;28;45474;-62
2022/06/25 10:13:10;;;;;;;;;3.50;2.75;;;;;-146.44;100.00;58906.56;5075430;28;45495;-62
2022/06/25 10:15:37;;;;;;;;;1.25;1.25;;;;;-146.44;100.00;58906.56;5075430;28;45444;-61
2022/06/25 10:18:06;;;;;;;;;1.25;1.25;;;;;-146.44;100.00;58906.56;5075380;28;45439;-62
2022/06/25 10:20:33;;;;;;;;;1.00;1.00;;;;;-146.44;100.00;58906.56;5075624;28;45610;-61
2022/06/25 10:23:01;;;;;;;;;1.00;1.00;;;;;-146.44;100.00;58906.56;5075329;28;45552;-62
2022/06/25 10:25:28;;;;;;;;;3.00;1.75;;;;;-146.44;100.00;58906.56;5075150;28;45511;-64
2022/06/25 10:28:07;;;;;;;;;1.00;1.00;;;;;-146.44;100.00;58906.56;5086015;27;45469;-62
2022/06/25 10:30:50;;;;;;;;;1.00;1.00;;;;;-146.44;100.00;58906.56;5075479;28;45494;-63
2022/06/25 10:33:21;;;;;;;;;2.00;2.00;;;;;-146.44;100.00;58906.56;5075108;28;45482;-63
2022/06/25 10:35:52;;;;;;;;;2.25;2.25;;;;;-146.44;100.00;58906.56;5056684;28;45667;-63
2022/06/25 10:38:21;;;;;;;;;2.25;2.25;;;;;-146.44;100.00;58906.56;5078195;27;45542;-63
2022/06/25 10:42:58;;;;;;;;;3.00;3.00;;;;;-146.44;100.00;58906.56;5095305;27;45489;-63
2022/06/25 10:43:56;;;;;;;;;2.00;2.00;;;;;-146.44;100.00;58906.56;5095212;27;46364;-64
2022/06/25 10:46:22;;;;;;;;;2.75;2.00;;;;;-146.44;100.00;58906.56;5089698;27;45536;-62
2022/06/25 10:49:10;;;;;;;;;24.33;24.00;;;;;-146.44;100.00;58906.56;5094821;27;45508;-63
2022/06/25 10:51:38;;;;;;;;;7.67;7.67;;;;;-146.44;100.00;58906.56;5085305;27;45441;-62
2022/06/25 10:54:06;;;;;;;;;9.00;9.00;;;;;-146.44;100.00;58906.56;5068351;27;45436;-62
2022/06/25 10:56:46;;;;;;;;;13.67;12.67;;;;;-146.44;100.00;58906.56;5088958;27;45582;-63
2022/06/25 10:59:37;;;;;;;;;15.00;15.00;;;;;-146.44;100.00;58906.56;5095269;27;45508;-62
2022/06/25 11:02:05;;;;;;;;;4.25;2.00;;;;;-146.44;100.00;58906.56;5078334;27;45352;-63
2022/06/25 11:04:33;;;;;;;;;6.00;5.50;;;;;-146.44;100.00;58906.56;5078755;27;46817;-63
2022/06/25 11:07:08;;;;;;;;;6.00;6.00;;;;;-146.44;100.00;58906.56;5095012;27;45387;-62
2022/06/25 11:09:34;;;;;;;;;4.25;3.75;;;;;-146.44;100.00;58906.56;5056841;27;45489;-62
2022/06/25 11:12:00;;;;;;;;;4.00;4.00;;;;;-146.44;100.00;58906.56;5094650;27;45504;-62
2022/06/25 11:14:25;;;;;;;;;4.00;3.00;;;;;-146.44;100.00;58906.56;5081252;27;45572;-63
2022/06/25 11:16:53;;;;;;;;;3.50;3.25;;;;;-146.44;100.00;58906.56;5064128;27;45518;-63
2022/06/25 11:19:20;;;;;;;;;2.00;2.00;;;;;-146.44;100.00;58906.56;5094665;27;45481;-63
2022/06/25 11:21:46;;;;;;;;;3.25;3.25;;;;;-146.44;100.00;58906.56;5094720;27;45510;-63
2022/06/25 11:24:19;;;;;;;;;2.00;2.00;;;;;-146.44;100.00;58906.56;5075642;27;46498;-63
2022/06/25 11:29:36;;;;;;;;;2.75;2.75;;;;;-146.44;100.00;58906.56;5086702;27;45531;-62
2022/06/25 11:32:03;;;;;;;;;3.00;3.00;;;;;-146.44;100.00;58906.56;5095327;27;45442;-62